sensor_id;sensor_type;location;lat;lon;timestamp;temperature;humidity
3310;DHT22;1667;53.238;10.394;2023-09-30T00:02:41;17.30;99.90
3310;DHT22;1667;53.238;10.394;2023-09-30T00:07:42;17.30;99.90
3310;DHT22;1667;53.238;10.394;2023-09-30T00:12:41;17.20;99.90
3310;DHT22;1667;53.238;10.394;2023-09-30T00:17:40;17.20;99.90
3310;DHT22;1667;53.238;10.394;2023-09-30T00:22:39;17.10;99.90
3310;DHT22;1667;53.238;10.394;2023-09-30T00:27:40;17.10;99.90
3310;DHT22;1667;53.238;10.394;2023-09-30T00:32:39;17.00;99.90
3310;DHT22;1667;53.238;10.394;2023-09-30T00:37:38;17.00;99.90
3310;DHT22;1667;53.238;10.394;2023-09-30T00:42:37;17.00;99.90
3310;DHT22;1667;53.238;10.394;2023-09-30T00:47:37;16.90;99.90
3310;DHT22;1667;53.238;10.394;2023-09-30T00:52:38;16.90;99.90
3310;DHT22;1667;53.238;10.394;2023-09-30T00:57:37;16.80;99.90
3310;DHT22;1667;53.238;10.394;2023-09-30T01:02:38;16.80;99.90
3310;DHT22;1667;53.238;10.394;2023-09-30T01:07:37;16.80;99.90
3310;DHT22;1667;53.238;10.394;2023-09-30T01:12:36;16.70;99.90
3310;DHT22;1667;53.238;10.394;2023-09-30T01:17:37;16.70;99.90
3310;DHT22;1667;53.238;10.394;2023-09-30T01:22:37;16.60;99.90
3310;DHT22;1667;53.238;10.394;2023-09-30T01:27:37;16.60;99.90
3310;DHT22;1667;53.238;10.394;2023-09-30T01:32:36;16.60;99.90
3310;DHT22;1667;53.238;10.394;2023-09-30T01:37:36;16.60;99.90
3310;DHT22;1667;53.238;10.394;2023-09-30T01:42:35;16.50;99.90
3310;DHT22;1667;53.238;10.394;2023-09-30T01:47:34;16.50;99.90
3310;DHT22;1667;53.238;10.394;2023-09-30T01:52:33;16.50;99.90
3310;DHT22;1667;53.238;10.394;2023-09-30T01:57:33;16.50;99.90
3310;DHT22;1667;53.238;10.394;2023-09-30T02:02:32;16.40;99.90
3310;DHT22;1667;53.238;10.394;2023-09-30T02:07:32;16.40;99.90
3310;DHT22;1667;53.238;10.394;2023-09-30T02:12:32;16.40;99.90
3310;DHT22;1667;53.238;10.394;2023-09-30T02:17:31;16.30;99.90
3310;DHT22;1667;53.238;10.394;2023-09-30T02:22:30;16.30;99.90
3310;DHT22;1667;53.238;10.394;2023-09-30T02:27:30;16.30;99.90
3310;DHT22;1667;53.238;10.394;2023-09-30T02:32:31;16.20;99.90
3310;DHT22;1667;53.238;10.394;2023-09-30T02:37:32;16.20;99.90
3310;DHT22;1667;53.238;10.394;2023-09-30T02:42:33;16.20;99.90
3310;DHT22;1667;53.238;10.394;2023-09-30T02:47:34;16.10;99.90
3310;DHT22;1667;53.238;10.394;2023-09-30T02:52:58;16.10;99.90
3310;DHT22;1667;53.238;10.394;2023-09-30T02:57:57;16.10;99.90
3310;DHT22;1667;53.238;10.394;2023-09-30T03:02:59;16.00;99.90
3310;DHT22;1667;53.238;10.394;2023-09-30T03:07:59;16.00;99.90
3310;DHT22;1667;53.238;10.394;2023-09-30T03:12:58;15.90;99.90
3310;DHT22;1667;53.238;10.394;2023-09-30T03:18:00;15.90;99.90
3310;DHT22;1667;53.238;10.394;2023-09-30T03:23:01;15.90;99.90
3310;DHT22;1667;53.238;10.394;2023-09-30T03:28:01;15.80;99.90
3310;DHT22;1667;53.238;10.394;2023-09-30T03:33:05;15.80;99.90
3310;DHT22;1667;53.238;10.394;2023-09-30T03:38:04;15.80;99.90
3310;DHT22;1667;53.238;10.394;2023-09-30T03:43:04;15.70;99.90
3310;DHT22;1667;53.238;10.394;2023-09-30T03:48:05;15.70;99.90
3310;DHT22;1667;53.238;10.394;2023-09-30T03:53:05;15.70;99.90
3310;DHT22;1667;53.238;10.394;2023-09-30T03:58:04;15.60;99.90
3310;DHT22;1667;53.238;10.394;2023-09-30T04:03:05;15.60;99.90
3310;DHT22;1667;53.238;10.394;2023-09-30T04:08:04;15.60;99.90
3310;DHT22;1667;53.238;10.394;2023-09-30T04:13:03;15.60;99.90
3310;DHT22;1667;53.238;10.394;2023-09-30T04:18:02;15.60;99.90
3310;DHT22;1667;53.238;10.394;2023-09-30T04:23:04;15.50;99.90
3310;DHT22;1667;53.238;10.394;2023-09-30T04:28:04;15.50;99.90
3310;DHT22;1667;53.238;10.394;2023-09-30T04:33:03;15.50;99.90
3310;DHT22;1667;53.238;10.394;2023-09-30T04:38:06;15.50;99.90
3310;DHT22;1667;53.238;10.394;2023-09-30T04:43:05;15.50;99.90
3310;DHT22;1667;53.238;10.394;2023-09-30T04:48:04;15.40;99.90
3310;DHT22;1667;53.238;10.394;2023-09-30T04:53:03;15.40;99.90
3310;DHT22;1667;53.238;10.394;2023-09-30T04:58:03;15.40;99.90
3310;DHT22;1667;53.238;10.394;2023-09-30T05:03:04;15.40;99.90
3310;DHT22;1667;53.238;10.394;2023-09-30T05:08:03;15.40;99.90
3310;DHT22;1667;53.238;10.394;2023-09-30T05:13:04;15.40;99.90
3310;DHT22;1667;53.238;10.394;2023-09-30T05:18:03;15.30;99.90
3310;DHT22;1667;53.238;10.394;2023-09-30T05:23:03;15.40;99.90
3310;DHT22;1667;53.238;10.394;2023-09-30T05:28:06;15.30;99.90
3310;DHT22;1667;53.238;10.394;2023-09-30T05:33:05;15.30;99.90
3310;DHT22;1667;53.238;10.394;2023-09-30T05:38:04;15.30;99.90
3310;DHT22;1667;53.238;10.394;2023-09-30T05:43:05;15.30;99.90
3310;DHT22;1667;53.238;10.394;2023-09-30T05:48:04;15.30;99.90
3310;DHT22;1667;53.238;10.394;2023-09-30T05:53:03;15.30;99.90
3310;DHT22;1667;53.238;10.394;2023-09-30T05:58:04;15.30;99.90
3310;DHT22;1667;53.238;10.394;2023-09-30T06:03:03;15.30;99.90
3310;DHT22;1667;53.238;10.394;2023-09-30T06:08:04;15.30;99.90
3310;DHT22;1667;53.238;10.394;2023-09-30T06:13:07;15.30;99.90
3310;DHT22;1667;53.238;10.394;2023-09-30T06:18:06;15.40;99.90
3310;DHT22;1667;53.238;10.394;2023-09-30T06:23:05;15.40;99.90
3310;DHT22;1667;53.238;10.394;2023-09-30T06:28:04;15.40;99.90
3310;DHT22;1667;53.238;10.394;2023-09-30T06:33:07;15.40;99.90
3310;DHT22;1667;53.238;10.394;2023-09-30T06:38:09;15.40;99.90
3310;DHT22;1667;53.238;10.394;2023-09-30T06:43:08;15.40;99.90
3310;DHT22;1667;53.238;10.394;2023-09-30T06:48:09;15.40;99.90
3310;DHT22;1667;53.238;10.394;2023-09-30T06:53:09;15.50;99.90
3310;DHT22;1667;53.238;10.394;2023-09-30T06:58:08;15.50;99.90
3310;DHT22;1667;53.238;10.394;2023-09-30T07:03:09;15.50;99.90
3310;DHT22;1667;53.238;10.394;2023-09-30T07:08:08;15.50;99.90
3310;DHT22;1667;53.238;10.394;2023-09-30T07:13:07;15.60;99.90
3310;DHT22;1667;53.238;10.394;2023-09-30T07:18:06;15.60;99.90
3310;DHT22;1667;53.238;10.394;2023-09-30T07:23:06;15.70;99.90
3310;DHT22;1667;53.238;10.394;2023-09-30T07:28:16;15.80;99.90
3310;DHT22;1667;53.238;10.394;2023-09-30T07:33:14;15.90;99.90
3310;DHT22;1667;53.238;10.394;2023-09-30T07:38:14;15.90;99.90
3310;DHT22;1667;53.238;10.394;2023-09-30T07:43:13;16.00;99.90
3310;DHT22;1667;53.238;10.394;2023-09-30T07:54:23;16.20;99.90
3310;DHT22;1667;53.238;10.394;2023-09-30T07:59:28;16.30;99.90
3310;DHT22;1667;53.238;10.394;2023-09-30T08:04:26;16.40;99.90
3310;DHT22;1667;53.238;10.394;2023-09-30T08:09:26;16.60;99.90
3310;DHT22;1667;53.238;10.394;2023-09-30T08:14:25;16.70;99.90
3310;DHT22;1667;53.238;10.394;2023-09-30T08:19:24;16.80;99.90
3310;DHT22;1667;53.238;10.394;2023-09-30T08:24:23;16.80;99.90
3310;DHT22;1667;53.238;10.394;2023-09-30T08:29:23;17.00;99.90
3310;DHT22;1667;53.238;10.394;2023-09-30T08:34:22;17.10;99.90
3310;DHT22;1667;53.238;10.394;2023-09-30T08:39:21;17.20;99.90
3310;DHT22;1667;53.238;10.394;2023-09-30T08:44:20;17.20;99.90
3310;DHT22;1667;53.238;10.394;2023-09-30T08:49:22;17.30;99.90
3310;DHT22;1667;53.238;10.394;2023-09-30T08:54:21;17.40;99.90
3310;DHT22;1667;53.238;10.394;2023-09-30T08:59:21;17.50;99.90
3310;DHT22;1667;53.238;10.394;2023-09-30T09:04:22;17.60;99.90
3310;DHT22;1667;53.238;10.394;2023-09-30T09:09:22;17.80;99.90
3310;DHT22;1667;53.238;10.394;2023-09-30T09:14:36;17.90;99.90
3310;DHT22;1667;53.238;10.394;2023-09-30T09:19:37;18.00;99.90
3310;DHT22;1667;53.238;10.394;2023-09-30T09:24:37;18.10;99.90
3310;DHT22;1667;53.238;10.394;2023-09-30T09:29:37;18.20;99.90
3310;DHT22;1667;53.238;10.394;2023-09-30T09:34:38;18.40;99.90
3310;DHT22;1667;53.238;10.394;2023-09-30T09:39:37;18.50;99.90
3310;DHT22;1667;53.238;10.394;2023-09-30T09:44:36;18.60;99.90
3310;DHT22;1667;53.238;10.394;2023-09-30T09:49:37;18.80;99.90
3310;DHT22;1667;53.238;10.394;2023-09-30T09:54:36;18.90;99.90
3310;DHT22;1667;53.238;10.394;2023-09-30T09:59:36;19.00;99.90
3310;DHT22;1667;53.238;10.394;2023-09-30T10:05:03;19.10;99.90
3310;DHT22;1667;53.238;10.394;2023-09-30T10:10:07;19.30;99.90
3310;DHT22;1667;53.238;10.394;2023-09-30T10:15:34;19.30;99.90
3310;DHT22;1667;53.238;10.394;2023-09-30T10:20:36;19.30;99.90
3310;DHT22;1667;53.238;10.394;2023-09-30T10:25:35;19.50;99.90
3310;DHT22;1667;53.238;10.394;2023-09-30T10:30:33;19.60;99.90
3310;DHT22;1667;53.238;10.394;2023-09-30T10:35:45;19.70;99.90
3310;DHT22;1667;53.238;10.394;2023-09-30T10:40:45;19.80;99.90
3310;DHT22;1667;53.238;10.394;2023-09-30T10:45:44;19.90;99.90
3310;DHT22;1667;53.238;10.394;2023-09-30T10:50:53;19.90;99.90
3310;DHT22;1667;53.238;10.394;2023-09-30T10:55:57;19.90;99.90
3310;DHT22;1667;53.238;10.394;2023-09-30T11:00:56;20.00;99.90
3310;DHT22;1667;53.238;10.394;2023-09-30T11:05:57;20.00;99.90
3310;DHT22;1667;53.238;10.394;2023-09-30T11:11:09;20.10;99.90
3310;DHT22;1667;53.238;10.394;2023-09-30T11:16:08;20.10;99.90
3310;DHT22;1667;53.238;10.394;2023-09-30T11:21:10;20.20;99.90
3310;DHT22;1667;53.238;10.394;2023-09-30T11:26:10;20.30;99.90
3310;DHT22;1667;53.238;10.394;2023-09-30T11:31:12;20.50;99.90
3310;DHT22;1667;53.238;10.394;2023-09-30T11:36:13;20.60;99.90
3310;DHT22;1667;53.238;10.394;2023-09-30T11:41:13;20.70;99.90
3310;DHT22;1667;53.238;10.394;2023-09-30T11:46:12;20.70;99.90
3310;DHT22;1667;53.238;10.394;2023-09-30T11:51:13;20.70;99.90
3310;DHT22;1667;53.238;10.394;2023-09-30T11:56:12;20.80;99.90
3310;DHT22;1667;53.238;10.394;2023-09-30T12:01:11;20.90;99.90
3310;DHT22;1667;53.238;10.394;2023-09-30T12:06:13;21.00;99.90
3310;DHT22;1667;53.238;10.394;2023-09-30T12:11:14;21.10;99.90
3310;DHT22;1667;53.238;10.394;2023-09-30T12:16:12;21.20;99.30
3310;DHT22;1667;53.238;10.394;2023-09-30T12:21:13;21.20;98.90
3310;DHT22;1667;53.238;10.394;2023-09-30T12:26:15;21.30;98.80
3310;DHT22;1667;53.238;10.394;2023-09-30T12:31:17;21.40;98.60
3310;DHT22;1667;53.238;10.394;2023-09-30T12:36:22;21.40;98.60
3310;DHT22;1667;53.238;10.394;2023-09-30T12:41:22;21.60;98.60
3310;DHT22;1667;53.238;10.394;2023-09-30T12:46:20;21.70;98.20
3310;DHT22;1667;53.238;10.394;2023-09-30T12:51:21;21.80;97.80
3310;DHT22;1667;53.238;10.394;2023-09-30T12:56:20;21.80;97.60
3310;DHT22;1667;53.238;10.394;2023-09-30T13:01:19;21.90;97.60
3310;DHT22;1667;53.238;10.394;2023-09-30T13:06:21;22.00;97.20
3310;DHT22;1667;53.238;10.394;2023-09-30T13:11:19;22.10;97.10
3310;DHT22;1667;53.238;10.394;2023-09-30T13:16:19;22.10;96.50
3310;DHT22;1667;53.238;10.394;2023-09-30T13:21:18;22.10;95.80
3310;DHT22;1667;53.238;10.394;2023-09-30T13:26:18;21.90;95.90
3310;DHT22;1667;53.238;10.394;2023-09-30T13:31:19;21.80;95.70
3310;DHT22;1667;53.238;10.394;2023-09-30T13:36:17;21.70;95.30
3310;DHT22;1667;53.238;10.394;2023-09-30T13:41:17;21.70;95.60
3310;DHT22;1667;53.238;10.394;2023-09-30T13:46:16;21.80;95.60
3310;DHT22;1667;53.238;10.394;2023-09-30T13:51:15;21.90;95.70
3310;DHT22;1667;53.238;10.394;2023-09-30T13:56:14;21.90;95.60
3310;DHT22;1667;53.238;10.394;2023-09-30T14:01:14;21.90;94.70
3310;DHT22;1667;53.238;10.394;2023-09-30T14:06:16;22.00;95.20
3310;DHT22;1667;53.238;10.394;2023-09-30T14:11:15;22.00;95.20
3310;DHT22;1667;53.238;10.394;2023-09-30T14:16:16;22.00;94.90
3310;DHT22;1667;53.238;10.394;2023-09-30T14:21:14;22.00;95.20
3310;DHT22;1667;53.238;10.394;2023-09-30T14:26:13;22.00;95.50
3310;DHT22;1667;53.238;10.394;2023-09-30T14:31:12;22.00;95.10
3310;DHT22;1667;53.238;10.394;2023-09-30T14:36:13;22.00;95.30
3310;DHT22;1667;53.238;10.394;2023-09-30T14:41:12;21.90;95.10
3310;DHT22;1667;53.238;10.394;2023-09-30T14:46:11;21.90;94.90
3310;DHT22;1667;53.238;10.394;2023-09-30T14:51:10;21.90;95.10
3310;DHT22;1667;53.238;10.394;2023-09-30T14:56:16;21.90;95.00
3310;DHT22;1667;53.238;10.394;2023-09-30T15:01:15;21.90;94.80
3310;DHT22;1667;53.238;10.394;2023-09-30T15:06:14;21.80;94.60
3310;DHT22;1667;53.238;10.394;2023-09-30T15:11:14;21.80;94.60
3310;DHT22;1667;53.238;10.394;2023-09-30T15:16:19;21.70;94.70
3310;DHT22;1667;53.238;10.394;2023-09-30T15:21:19;21.70;94.80
3310;DHT22;1667;53.238;10.394;2023-09-30T15:26:17;21.60;94.40
3310;DHT22;1667;53.238;10.394;2023-09-30T15:31:18;21.60;94.80
3310;DHT22;1667;53.238;10.394;2023-09-30T15:36:18;21.50;94.90
3310;DHT22;1667;53.238;10.394;2023-09-30T15:41:20;21.40;94.80
3310;DHT22;1667;53.238;10.394;2023-09-30T15:46:20;21.30;95.00
3310;DHT22;1667;53.238;10.394;2023-09-30T15:51:19;21.20;95.10
3310;DHT22;1667;53.238;10.394;2023-09-30T15:56:19;21.10;95.30
3310;DHT22;1667;53.238;10.394;2023-09-30T16:01:19;21.00;95.60
3310;DHT22;1667;53.238;10.394;2023-09-30T16:06:18;20.90;95.60
3310;DHT22;1667;53.238;10.394;2023-09-30T16:11:23;20.80;95.70
3310;DHT22;1667;53.238;10.394;2023-09-30T16:16:23;20.70;95.70
3310;DHT22;1667;53.238;10.394;2023-09-30T16:21:22;20.70;95.70
3310;DHT22;1667;53.238;10.394;2023-09-30T16:26:25;20.50;96.10
3310;DHT22;1667;53.238;10.394;2023-09-30T16:31:25;20.40;96.30
3310;DHT22;1667;53.238;10.394;2023-09-30T16:36:24;20.30;96.60
3310;DHT22;1667;53.238;10.394;2023-09-30T16:41:24;20.20;96.90
3310;DHT22;1667;53.238;10.394;2023-09-30T16:52:24;20.00;97.20
3310;DHT22;1667;53.238;10.394;2023-09-30T16:57:23;19.90;97.30
3310;DHT22;1667;53.238;10.394;2023-09-30T17:02:22;19.80;97.00
3310;DHT22;1667;53.238;10.394;2023-09-30T17:07:24;19.70;97.10
3310;DHT22;1667;53.238;10.394;2023-09-30T17:12:23;19.60;97.20
3310;DHT22;1667;53.238;10.394;2023-09-30T17:17:22;19.50;97.20
3310;DHT22;1667;53.238;10.394;2023-09-30T17:22:23;19.40;97.50
3310;DHT22;1667;53.238;10.394;2023-09-30T17:27:22;19.30;97.40
3310;DHT22;1667;53.238;10.394;2023-09-30T17:32:21;19.10;97.50
3310;DHT22;1667;53.238;10.394;2023-09-30T17:37:21;19.10;97.60
3310;DHT22;1667;53.238;10.394;2023-09-30T17:42:21;19.00;97.60
3310;DHT22;1667;53.238;10.394;2023-09-30T17:47:20;18.90;97.60
3310;DHT22;1667;53.238;10.394;2023-09-30T17:52:19;18.80;97.60
3310;DHT22;1667;53.238;10.394;2023-09-30T17:57:18;18.70;97.70
3310;DHT22;1667;53.238;10.394;2023-09-30T18:02:18;18.70;97.70
3310;DHT22;1667;53.238;10.394;2023-09-30T18:07:17;18.60;97.70
3310;DHT22;1667;53.238;10.394;2023-09-30T18:12:16;18.60;97.70
3310;DHT22;1667;53.238;10.394;2023-09-30T18:17:15;18.50;97.70
3310;DHT22;1667;53.238;10.394;2023-09-30T18:22:15;18.40;97.70
3310;DHT22;1667;53.238;10.394;2023-09-30T18:27:14;18.40;97.70
3310;DHT22;1667;53.238;10.394;2023-09-30T18:32:13;18.30;97.90
3310;DHT22;1667;53.238;10.394;2023-09-30T18:37:12;18.30;97.90
3310;DHT22;1667;53.238;10.394;2023-09-30T18:42:12;18.30;98.00
3310;DHT22;1667;53.238;10.394;2023-09-30T18:47:11;18.20;98.10
3310;DHT22;1667;53.238;10.394;2023-09-30T18:52:10;18.10;98.10
3310;DHT22;1667;53.238;10.394;2023-09-30T18:57:09;18.10;98.20
3310;DHT22;1667;53.238;10.394;2023-09-30T19:02:09;18.00;98.30
3310;DHT22;1667;53.238;10.394;2023-09-30T19:07:11;18.00;98.30
3310;DHT22;1667;53.238;10.394;2023-09-30T19:12:10;17.90;98.20
3310;DHT22;1667;53.238;10.394;2023-09-30T19:17:11;17.90;98.30
3310;DHT22;1667;53.238;10.394;2023-09-30T19:22:09;17.90;98.40
3310;DHT22;1667;53.238;10.394;2023-09-30T19:27:08;17.80;98.50
3310;DHT22;1667;53.238;10.394;2023-09-30T19:32:08;17.80;98.40
3310;DHT22;1667;53.238;10.394;2023-09-30T19:37:09;17.80;98.50
3310;DHT22;1667;53.238;10.394;2023-09-30T19:42:08;17.70;98.50
3310;DHT22;1667;53.238;10.394;2023-09-30T19:47:08;17.70;98.70
3310;DHT22;1667;53.238;10.394;2023-09-30T19:52:09;17.70;98.80
3310;DHT22;1667;53.238;10.394;2023-09-30T19:57:08;17.70;98.80
3310;DHT22;1667;53.238;10.394;2023-09-30T20:02:07;17.60;98.80
3310;DHT22;1667;53.238;10.394;2023-09-30T20:07:06;17.60;98.80
3310;DHT22;1667;53.238;10.394;2023-09-30T20:12:07;17.60;99.00
3310;DHT22;1667;53.238;10.394;2023-09-30T20:17:06;17.60;99.10
3310;DHT22;1667;53.238;10.394;2023-09-30T20:22:05;17.50;99.00
3310;DHT22;1667;53.238;10.394;2023-09-30T20:27:04;17.50;99.10
3310;DHT22;1667;53.238;10.394;2023-09-30T20:32:04;17.50;99.20
3310;DHT22;1667;53.238;10.394;2023-09-30T20:37:04;17.50;99.30
3310;DHT22;1667;53.238;10.394;2023-09-30T20:42:03;17.50;99.10
3310;DHT22;1667;53.238;10.394;2023-09-30T20:47:03;17.50;99.20
3310;DHT22;1667;53.238;10.394;2023-09-30T20:52:03;17.50;99.20
3310;DHT22;1667;53.238;10.394;2023-09-30T20:57:02;17.40;99.30
3310;DHT22;1667;53.238;10.394;2023-09-30T21:02:01;17.40;99.40
3310;DHT22;1667;53.238;10.394;2023-09-30T21:07:02;17.40;99.60
3310;DHT22;1667;53.238;10.394;2023-09-30T21:12:01;17.50;99.60
3310;DHT22;1667;53.238;10.394;2023-09-30T21:17:00;17.40;99.50
3310;DHT22;1667;53.238;10.394;2023-09-30T21:21:59;17.40;99.70
3310;DHT22;1667;53.238;10.394;2023-09-30T21:26:59;17.40;99.50
3310;DHT22;1667;53.238;10.394;2023-09-30T21:31:58;17.40;99.70
3310;DHT22;1667;53.238;10.394;2023-09-30T21:36:59;17.40;99.70
3310;DHT22;1667;53.238;10.394;2023-09-30T21:41:59;17.40;99.80
3310;DHT22;1667;53.238;10.394;2023-09-30T21:47:01;17.40;99.80
3310;DHT22;1667;53.238;10.394;2023-09-30T21:52:00;17.40;99.60
3310;DHT22;1667;53.238;10.394;2023-09-30T21:57:03;17.30;99.80
3310;DHT22;1667;53.238;10.394;2023-09-30T22:02:01;17.30;99.90
3310;DHT22;1667;53.238;10.394;2023-09-30T22:07:01;17.30;99.90
3310;DHT22;1667;53.238;10.394;2023-09-30T22:12:15;17.30;99.90
3310;DHT22;1667;53.238;10.394;2023-09-30T22:17:14;17.30;99.70
3310;DHT22;1667;53.238;10.394;2023-09-30T22:22:13;17.20;99.90
3310;DHT22;1667;53.238;10.394;2023-09-30T22:27:14;17.10;99.60
3310;DHT22;1667;53.238;10.394;2023-09-30T22:32:13;17.10;99.70
3310;DHT22;1667;53.238;10.394;2023-09-30T22:37:13;17.10;99.60
3310;DHT22;1667;53.238;10.394;2023-09-30T22:42:12;17.10;99.70
3310;DHT22;1667;53.238;10.394;2023-09-30T22:47:12;17.10;99.90
3310;DHT22;1667;53.238;10.394;2023-09-30T22:52:11;17.10;99.90
3310;DHT22;1667;53.238;10.394;2023-09-30T22:57:11;17.10;99.90
3310;DHT22;1667;53.238;10.394;2023-09-30T23:02:09;17.10;99.90
3310;DHT22;1667;53.238;10.394;2023-09-30T23:07:10;17.10;99.90
3310;DHT22;1667;53.238;10.394;2023-09-30T23:12:09;17.10;99.90
3310;DHT22;1667;53.238;10.394;2023-09-30T23:17:08;17.00;99.90
3310;DHT22;1667;53.238;10.394;2023-09-30T23:22:07;17.00;99.90
3310;DHT22;1667;53.238;10.394;2023-09-30T23:27:12;17.00;99.90
3310;DHT22;1667;53.238;10.394;2023-09-30T23:32:11;17.00;99.90
3310;DHT22;1667;53.238;10.394;2023-09-30T23:37:11;17.00;99.90
3310;DHT22;1667;53.238;10.394;2023-09-30T23:42:11;17.00;99.90
3310;DHT22;1667;53.238;10.394;2023-09-30T23:47:10;17.00;99.90
3310;DHT22;1667;53.238;10.394;2023-09-30T23:52:10;17.00;99.90
3310;DHT22;1667;53.238;10.394;2023-09-30T23:57:09;17.00;99.90
